createdAt,value
2022-12-13T00:01:53.942Z,54904.94
2022-12-13T00:04:25.060Z,54906.94
2022-12-13T00:06:55.133Z,54906.94
2022-12-13T00:09:25.141Z,54954.69
2022-12-13T00:11:54.864Z,54952.69
2022-12-13T00:14:23.549Z,54970.59
2022-12-13T00:16:52.143Z,54986.50
2022-12-13T00:19:20.972Z,55016.34
2022-12-13T00:21:49.570Z,54960.66
2022-12-13T00:24:18.013Z,54942.75
2022-12-13T00:26:47.864Z,54950.69
2022-12-13T00:29:16.443Z,54950.69
2022-12-13T00:31:59.423Z,54964.63
2022-12-13T00:34:29.226Z,54922.84
2022-12-13T00:36:59.380Z,54908.94
2022-12-13T00:39:28.374Z,54954.69
2022-12-13T00:41:58.779Z,54942.75
2022-12-13T00:44:27.835Z,54926.84
2022-12-13T00:46:56.817Z,54914.91
2022-12-13T00:49:25.841Z,54904.94
2022-12-13T00:51:54.220Z,54883.06
2022-12-13T00:54:23.051Z,54887.06
2022-12-13T00:56:52.525Z,54863.19
2022-12-13T00:59:22.508Z,54922.84
2022-12-13T01:01:51.031Z,54895.00
2022-12-13T01:04:19.617Z,54889.03
2022-12-13T01:06:51.521Z,54887.06
2022-12-13T01:09:21.752Z,54910.91
2022-12-13T01:11:50.880Z,54918.88
2022-12-13T01:14:20.220Z,54924.84
2022-12-13T01:16:50.186Z,54930.81
2022-12-13T01:19:18.612Z,54960.66
2022-12-13T01:21:47.223Z,54936.78
2022-12-13T01:24:15.912Z,54889.03
2022-12-13T01:26:45.183Z,54942.75
2022-12-13T01:29:13.760Z,54950.69
2022-12-13T01:31:42.233Z,54988.50
2022-12-13T01:34:13.181Z,54914.91
2022-12-13T01:36:43.220Z,54906.94
2022-12-13T01:39:15.037Z,54926.84
2022-12-13T01:41:45.614Z,54920.88
2022-12-13T01:44:51.539Z,54918.88
2022-12-13T01:47:25.138Z,54900.97
2022-12-13T01:49:59.657Z,54918.88
2022-12-13T01:52:31.937Z,54908.94
2022-12-13T01:55:03.192Z,54902.97
2022-12-13T01:57:34.489Z,54867.16
2022-12-13T02:00:03.674Z,54914.91
2022-12-13T02:02:35.908Z,54934.78
2022-12-13T02:05:11.451Z,54918.88
2022-12-13T02:07:42.626Z,54899.00
2022-12-13T02:10:12.219Z,54891.03
2022-12-13T02:12:42.201Z,54885.06
2022-12-13T02:15:14.708Z,54891.03
2022-12-13T02:17:56.243Z,54859.22
2022-12-13T02:20:58.160Z,54845.28
2022-12-13T02:23:51.238Z,54871.16
2022-12-13T02:26:47.384Z,54875.13
2022-12-13T02:29:46.109Z,54902.97
2022-12-13T02:32:21.437Z,54912.91
2022-12-13T02:34:59.851Z,54851.25
2022-12-13T02:37:34.900Z,54847.28
2022-12-13T02:40:10.738Z,54863.19
2022-12-13T02:42:48.146Z,54857.22
2022-12-13T02:45:21.359Z,54906.94
2022-12-13T02:47:55.117Z,54908.94
2022-12-13T02:50:26.261Z,54867.16
2022-12-13T02:52:56.301Z,54893.03
2022-12-13T02:55:28.331Z,54934.78
2022-12-13T02:57:56.995Z,54908.94
2022-12-13T03:00:36.135Z,54885.06
2022-12-13T03:03:18.881Z,54865.19
2022-12-13T03:06:12.966Z,54891.03
2022-12-13T03:08:56.398Z,54871.16
2022-12-13T03:11:48.676Z,54879.09
2022-12-13T03:14:21.739Z,54869.16
2022-12-13T03:16:52.795Z,54881.09
2022-12-13T03:19:23.126Z,54867.16
2022-12-13T03:21:51.674Z,54831.38
2022-12-13T03:24:22.526Z,54823.41
2022-12-13T03:26:52.426Z,54895.00
2022-12-13T03:29:24.715Z,54837.34
2022-12-13T03:31:53.768Z,54875.13
2022-12-13T03:34:23.939Z,54835.34
2022-12-13T03:36:53.125Z,54853.25
2022-12-13T03:39:22.204Z,54839.31
2022-12-13T03:41:51.188Z,54841.31
2022-12-13T03:44:19.949Z,54829.38
2022-12-13T03:46:48.483Z,54823.41
2022-12-13T03:49:17.607Z,54861.19
2022-12-13T03:51:47.981Z,54867.16
2022-12-13T03:54:16.740Z,54859.22
2022-12-13T03:56:45.199Z,54839.31
2022-12-13T03:59:13.592Z,54835.34
2022-12-13T04:01:42.107Z,54803.53
2022-12-13T04:04:10.476Z,54831.38
2022-12-13T04:06:38.848Z,54855.22
2022-12-13T04:09:08.920Z,54887.06
2022-12-13T04:11:54.988Z,54851.25
2022-12-13T04:14:23.488Z,54843.28
2022-12-13T04:16:52.614Z,54819.44
2022-12-13T04:19:23.072Z,54809.50
2022-12-13T04:21:54.407Z,54841.31
2022-12-13T04:24:31.299Z,54797.56
2022-12-13T04:27:01.082Z,54791.59
2022-12-13T04:29:33.794Z,54815.47
2022-12-13T04:32:04.302Z,54859.22
2022-12-13T04:34:37.528Z,54849.25
2022-12-13T04:37:06.805Z,54823.41
2022-12-13T04:39:37.078Z,54787.63
2022-12-13T04:42:06.000Z,54819.44
2022-12-13T04:44:37.065Z,54825.41
2022-12-13T04:47:06.388Z,54827.38
2022-12-13T04:49:35.594Z,54791.59
2022-12-13T04:52:04.815Z,54811.47
2022-12-13T04:54:36.020Z,54839.31
2022-12-13T04:57:08.706Z,54817.44
2022-12-13T04:59:38.092Z,54829.38
2022-12-13T05:02:07.731Z,54875.13
2022-12-13T05:04:36.543Z,54841.31
2022-12-13T05:07:05.245Z,54877.09
2022-12-13T05:09:33.732Z,54893.03
2022-12-13T05:12:02.424Z,54920.88
2022-12-13T05:14:33.157Z,54904.94
2022-12-13T05:17:01.964Z,54958.66
2022-12-13T05:19:31.724Z,54972.56
2022-12-13T05:22:02.213Z,54934.78
2022-12-13T05:24:32.607Z,55012.34
2022-12-13T05:27:01.213Z,54994.47
2022-12-13T05:29:29.888Z,54976.56
2022-12-13T05:32:00.241Z,55014.34
2022-12-13T05:34:28.880Z,54986.50
2022-12-13T05:36:57.481Z,55034.22
2022-12-13T05:39:29.011Z,55014.34
2022-12-13T05:42:01.521Z,55034.22
2022-12-13T05:44:31.059Z,55012.34
2022-12-13T05:47:02.464Z,55064.06
2022-12-13T05:49:32.607Z,55040.19
2022-12-13T05:52:01.251Z,55034.22
2022-12-13T05:54:29.764Z,55028.25
2022-12-13T05:56:58.308Z,55004.41
2022-12-13T05:59:26.715Z,55010.38
2022-12-13T06:01:55.241Z,55060.09
2022-12-13T06:04:25.399Z,55044.19
2022-12-13T06:06:54.455Z,55058.09
2022-12-13T06:09:23.203Z,55010.38
2022-12-13T06:11:51.527Z,55012.34
2022-12-13T06:14:22.624Z,55008.38
2022-12-13T06:16:52.955Z,55062.09
2022-12-13T06:19:21.903Z,55054.13
2022-12-13T06:21:52.285Z,55054.13
2022-12-13T06:24:22.603Z,55056.13
2022-12-13T06:26:52.367Z,54980.53
2022-12-13T06:29:25.470Z,54992.47
2022-12-13T06:32:01.170Z,55030.25
2022-12-13T06:34:37.567Z,55050.16
2022-12-13T06:37:08.977Z,55064.06
2022-12-13T06:39:37.805Z,55026.28
2022-12-13T06:42:08.262Z,55032.25
2022-12-13T06:44:37.418Z,55026.28
2022-12-13T06:47:11.808Z,55034.22
2022-12-13T06:49:44.865Z,55081.97
2022-12-13T06:52:15.969Z,55054.13
2022-12-13T06:54:45.489Z,55081.97
2022-12-13T06:57:16.861Z,55054.13
2022-12-13T06:59:45.472Z,55030.25
2022-12-13T07:02:15.291Z,55070.03
2022-12-13T07:04:52.942Z,55066.06
2022-12-13T07:07:22.963Z,55026.28
2022-12-13T07:09:52.856Z,55062.09
2022-12-13T07:12:21.945Z,55014.34
2022-12-13T07:14:50.660Z,55058.09
2022-12-13T07:17:32.391Z,55038.22
2022-12-13T07:20:02.132Z,55046.16
2022-12-13T07:22:34.574Z,55032.25
2022-12-13T07:25:06.266Z,55014.34
2022-12-13T07:27:35.054Z,55085.94
2022-12-13T07:30:03.703Z,55006.38
2022-12-13T07:32:32.216Z,55026.28
2022-12-13T07:35:00.651Z,55038.22
2022-12-13T07:37:30.376Z,55014.34
2022-12-13T07:40:04.273Z,55066.06
2022-12-13T07:42:33.489Z,55081.97
2022-12-13T07:45:04.295Z,55032.25
2022-12-13T07:47:33.627Z,54988.50
2022-12-13T07:50:02.445Z,55046.16
2022-12-13T07:52:31.523Z,55036.22
2022-12-13T07:55:02.327Z,55034.22
2022-12-13T07:57:30.637Z,55070.03
2022-12-13T07:59:59.382Z,55081.97
2022-12-13T08:02:28.257Z,55058.09
2022-12-13T08:04:56.818Z,55058.09
2022-12-13T08:07:25.429Z,55062.09
2022-12-13T08:09:55.462Z,55038.22
2022-12-13T08:12:25.429Z,55089.94
2022-12-13T08:14:54.179Z,55062.09
2022-12-13T08:17:23.249Z,55074.00
2022-12-13T08:19:51.954Z,55052.13
2022-12-13T08:22:23.769Z,55066.06
2022-12-13T08:24:53.061Z,55085.94
2022-12-13T08:27:21.467Z,55123.75
2022-12-13T08:29:51.411Z,55085.94
2022-12-13T08:32:20.062Z,55085.94
2022-12-13T08:34:48.486Z,55097.88
2022-12-13T08:37:18.795Z,55129.69
2022-12-13T08:39:47.426Z,55121.75
2022-12-13T08:42:19.867Z,55109.81
2022-12-13T08:44:50.946Z,55115.78
2022-12-13T08:47:26.056Z,55121.75
2022-12-13T08:50:01.439Z,55121.75
2022-12-13T08:52:39.824Z,55165.50
2022-12-13T08:55:10.606Z,55157.56
2022-12-13T08:57:40.091Z,55161.53
2022-12-13T09:00:11.403Z,55189.38
2022-12-13T09:02:41.557Z,55173.47
2022-12-13T09:05:11.416Z,55183.41
2022-12-13T09:07:41.248Z,55217.22
2022-12-13T09:10:26.516Z,55215.22
2022-12-13T09:13:01.472Z,55284.84
2022-12-13T09:15:34.374Z,55259.00
2022-12-13T09:18:05.792Z,55306.72
2022-12-13T09:20:41.032Z,55264.97
2022-12-13T09:23:13.963Z,55312.69
2022-12-13T09:26:05.524Z,55304.75
2022-12-13T09:28:36.202Z,55288.84
2022-12-13T09:31:09.653Z,55304.75
2022-12-13T09:33:59.076Z,55354.47
2022-12-13T09:36:29.966Z,55382.31
2022-12-13T09:38:59.438Z,55432.06
2022-12-13T09:41:40.947Z,55392.25
2022-12-13T09:44:32.635Z,55396.25
2022-12-13T09:47:04.222Z,55400.22
2022-12-13T09:49:52.243Z,55445.97
2022-12-13T09:52:25.133Z,55453.94
2022-12-13T09:54:55.957Z,55493.72
2022-12-13T09:57:32.160Z,55515.59
2022-12-13T10:00:05.694Z,55527.53
2022-12-13T10:02:45.920Z,55455.91
2022-12-13T10:05:35.691Z,55515.59
2022-12-13T10:08:10.808Z,55545.44
2022-12-13T10:10:39.579Z,55539.47
2022-12-13T10:13:18.035Z,55611.09
2022-12-13T10:15:51.819Z,55658.81
2022-12-13T10:18:28.250Z,55634.94
2022-12-13T10:20:59.817Z,55670.75
2022-12-13T10:23:42.720Z,55706.56
2022-12-13T10:26:23.845Z,55682.69
2022-12-13T10:29:04.616Z,55638.94
2022-12-13T10:31:42.245Z,55660.81
2022-12-13T10:34:22.393Z,55766.25
2022-12-13T10:36:52.646Z,55798.09
2022-12-13T10:39:41.308Z,55808.03
2022-12-13T10:42:22.079Z,55909.50
2022-12-13T10:45:09.523Z,55706.56
2022-12-13T10:47:38.188Z,55692.66
2022-12-13T10:50:07.651Z,55623.03
2022-12-13T10:52:43.824Z,55738.41
2022-12-13T10:55:30.070Z,55720.50
2022-12-13T10:58:02.115Z,55591.19
2022-12-13T11:00:39.406Z,55670.75
2022-12-13T11:03:12.211Z,55591.19
2022-12-13T11:05:41.326Z,55607.09
2022-12-13T11:08:24.026Z,55513.59
2022-12-13T11:11:00.066Z,55509.63
2022-12-13T11:13:39.047Z,55471.84
2022-12-13T11:16:23.655Z,55497.69
2022-12-13T11:18:55.300Z,55521.56
2022-12-13T11:21:27.413Z,55583.22
2022-12-13T11:24:01.925Z,55416.13
2022-12-13T11:26:33.414Z,55412.16
2022-12-13T11:29:42.848Z,55386.28
2022-12-13T11:32:23.025Z,55257.00
2022-12-13T11:35:02.822Z,55324.63
2022-12-13T11:37:39.451Z,55396.25
2022-12-13T11:40:15.911Z,55390.28
2022-12-13T11:42:51.602Z,55386.28
2022-12-13T11:45:23.770Z,55336.56
2022-12-13T11:48:05.703Z,55262.97
2022-12-13T11:50:38.904Z,55249.06
2022-12-13T11:53:24.118Z,55320.66
2022-12-13T11:56:00.366Z,55316.69
2022-12-13T12:01:30.898Z,55171.47
2022-12-13T12:04:03.946Z,55153.56
2022-12-13T12:06:39.832Z,55171.47
2022-12-13T12:09:15.452Z,55169.50
2022-12-13T12:11:50.222Z,55237.13
2022-12-13T12:14:23.933Z,55237.13
2022-12-13T12:16:55.512Z,55109.81
2022-12-13T12:19:26.442Z,55044.19
2022-12-13T12:22:15.199Z,55093.91
2022-12-13T12:24:58.601Z,55145.63
2022-12-13T12:27:39.467Z,55083.97
2022-12-13T12:30:23.773Z,55030.25
2022-12-13T12:33:03.178Z,55018.31
2022-12-13T12:36:01.685Z,55087.94
2022-12-13T12:38:53.858Z,54990.47
2022-12-13T12:41:34.369Z,55010.38
2022-12-13T12:44:17.097Z,54926.84
2022-12-13T12:47:18.275Z,54914.91
2022-12-13T12:50:30.142Z,54914.91
2022-12-13T12:53:12.953Z,54891.03
2022-12-13T12:55:51.524Z,54950.69
2022-12-13T12:58:28.216Z,54936.78
2022-12-13T13:01:11.460Z,54916.88
2022-12-13T13:03:43.533Z,54871.16
2022-12-13T13:06:16.536Z,54763.75
2022-12-13T13:08:55.132Z,54779.66
2022-12-13T13:11:26.337Z,54733.91
2022-12-13T13:14:25.857Z,54755.78
2022-12-13T13:16:56.998Z,54710.06
2022-12-13T13:19:45.919Z,54648.41
2022-12-13T13:22:32.369Z,54668.28
2022-12-13T13:25:29.297Z,54660.31
2022-12-13T13:28:15.375Z,54672.25
2022-12-13T13:31:03.552Z,54682.22
2022-12-13T13:33:46.363Z,54662.31
2022-12-13T13:36:48.417Z,54694.13
2022-12-13T13:39:19.591Z,54674.25
2022-12-13T13:41:57.429Z,54751.81
2022-12-13T13:44:58.476Z,54684.19
2022-12-13T13:47:39.153Z,54720.00
2022-12-13T13:51:04.734Z,54602.66
2022-12-13T13:54:06.037Z,54648.41
2022-12-13T13:56:50.077Z,54636.47
2022-12-13T13:59:59.090Z,54636.47
2022-12-13T14:03:09.067Z,54646.41
2022-12-13T14:06:50.410Z,54614.59
2022-12-13T14:09:51.411Z,54656.34
2022-12-13T14:13:10.457Z,54584.75
2022-12-13T14:16:07.458Z,54600.66
2022-12-13T14:19:29.499Z,54529.06
2022-12-13T14:22:09.054Z,54596.69
2022-12-13T14:24:50.741Z,54562.88
2022-12-13T14:27:30.030Z,54622.53
2022-12-13T14:30:00.300Z,54600.66
2022-12-13T14:32:31.168Z,54592.72
2022-12-13T14:35:25.890Z,54562.88
2022-12-13T14:37:59.171Z,54560.91
2022-12-13T14:40:32.651Z,54624.53
2022-12-13T14:43:01.897Z,54598.69
2022-12-13T14:45:32.457Z,54600.66
2022-12-13T14:48:04.624Z,54628.50
2022-12-13T14:50:37.514Z,54620.56
2022-12-13T14:53:06.814Z,54624.53
2022-12-13T14:55:38.534Z,54632.50
2022-12-13T14:58:18.899Z,54644.41
2022-12-13T15:00:47.639Z,54638.44
2022-12-13T15:03:25.126Z,54660.31
2022-12-13T15:05:55.955Z,54646.41
2022-12-13T15:08:24.719Z,54652.38
2022-12-13T15:10:57.066Z,54642.44
2022-12-13T15:13:34.480Z,54662.31
2022-12-13T15:16:10.732Z,54660.31
2022-12-13T15:19:10.884Z,54632.50
2022-12-13T15:21:40.372Z,54646.41
2022-12-13T15:24:13.842Z,54664.31
2022-12-13T15:26:47.889Z,54644.41
2022-12-13T15:29:20.994Z,54624.53
2022-12-13T15:31:50.151Z,54622.53
2022-12-13T15:34:39.832Z,54620.56
2022-12-13T15:37:29.672Z,54646.41
2022-12-13T15:40:07.089Z,54580.78
2022-12-13T15:42:40.153Z,54632.50
2022-12-13T15:45:21.067Z,54586.75
2022-12-13T15:47:50.590Z,54622.53
2022-12-13T15:50:33.423Z,54624.53
2022-12-13T15:53:03.610Z,54644.41
2022-12-13T15:55:37.274Z,54628.50
2022-12-13T15:58:26.796Z,54612.59
2022-12-13T16:00:55.400Z,54624.53
2022-12-13T16:03:27.709Z,54600.66
2022-12-13T16:05:59.152Z,54630.50
2022-12-13T16:08:31.766Z,54638.44
2022-12-13T16:11:01.369Z,54620.56
2022-12-13T16:13:33.062Z,54638.44
2022-12-13T16:16:09.163Z,54632.50
2022-12-13T16:18:47.777Z,54644.41
2022-12-13T16:21:16.252Z,54626.53
2022-12-13T16:23:48.322Z,54602.66
2022-12-13T16:26:24.192Z,54588.75
2022-12-13T16:28:54.711Z,54630.50
2022-12-13T16:31:25.534Z,54664.31
2022-12-13T16:33:54.036Z,54646.41
2022-12-13T16:36:22.726Z,54642.44
2022-12-13T16:38:51.526Z,54646.41
2022-12-13T16:41:22.235Z,54646.41
2022-12-13T16:43:56.285Z,54648.41
2022-12-13T16:47:14.425Z,54644.41
2022-12-13T16:49:21.314Z,54646.41
2022-12-13T16:51:52.761Z,54652.38
2022-12-13T16:54:22.319Z,54616.56
2022-12-13T16:56:52.228Z,54610.63
2022-12-13T16:59:24.983Z,54650.38
2022-12-13T17:01:54.584Z,54624.53
2022-12-13T17:04:27.337Z,54674.25
2022-12-13T17:06:56.696Z,54642.44
2022-12-13T17:09:26.124Z,54646.41
2022-12-13T17:11:55.500Z,54636.47
2022-12-13T17:14:26.851Z,54658.34
2022-12-13T17:16:56.252Z,54634.47
2022-12-13T17:19:25.136Z,54614.59
2022-12-13T17:21:55.352Z,54666.28
2022-12-13T17:24:24.696Z,54624.53
2022-12-13T17:27:02.701Z,54680.22
2022-12-13T17:29:34.317Z,54638.44
2022-12-13T17:32:03.230Z,54650.38
2022-12-13T17:34:32.308Z,54680.22
2022-12-13T17:37:05.712Z,54658.34
2022-12-13T17:39:39.657Z,54666.28
2022-12-13T17:42:10.018Z,54660.31
2022-12-13T17:44:40.525Z,54680.22
2022-12-13T17:47:10.489Z,54704.09
2022-12-13T17:49:39.377Z,54652.38
2022-12-13T17:52:08.561Z,54686.19
2022-12-13T17:54:37.871Z,54660.31
2022-12-13T17:57:06.960Z,54650.38
2022-12-13T17:59:41.176Z,54648.41
2022-12-13T18:02:17.763Z,54686.19
2022-12-13T18:04:46.732Z,54646.41
2022-12-13T18:07:15.643Z,54636.47
2022-12-13T18:09:44.943Z,54682.22
2022-12-13T18:12:13.922Z,54668.28
2022-12-13T18:14:43.770Z,54664.31
2022-12-13T18:17:14.061Z,54658.34
2022-12-13T18:19:43.352Z,54654.38
2022-12-13T18:22:13.703Z,54646.41
2022-12-13T18:24:42.564Z,54656.34
2022-12-13T18:27:11.046Z,54720.00
2022-12-13T18:29:55.015Z,54648.41
2022-12-13T18:32:28.318Z,54660.31
2022-12-13T18:34:56.968Z,54684.19
2022-12-13T18:37:25.883Z,54662.31
2022-12-13T18:39:55.354Z,54680.22
2022-12-13T18:42:23.993Z,54682.22
2022-12-13T18:44:54.739Z,54664.31
2022-12-13T18:47:26.858Z,54684.19
2022-12-13T18:49:55.567Z,54672.25
2022-12-13T18:52:25.314Z,54684.19
2022-12-13T18:54:54.821Z,54650.38
2022-12-13T18:57:27.566Z,54686.19
2022-12-13T18:59:56.688Z,54662.31
2022-12-13T19:02:31.167Z,54700.09
2022-12-13T19:05:03.092Z,54668.28
2022-12-13T19:07:32.133Z,54666.28
2022-12-13T19:10:01.342Z,54668.28
2022-12-13T19:12:32.051Z,54674.25
2022-12-13T19:15:00.902Z,54632.50
2022-12-13T19:17:31.573Z,54644.41
2022-12-13T19:20:02.148Z,54630.50
2022-12-13T19:22:32.196Z,54598.69
2022-12-13T19:25:01.098Z,54628.50
2022-12-13T19:27:31.937Z,54668.28
2022-12-13T19:30:01.214Z,54654.38
2022-12-13T19:32:32.134Z,54640.44
2022-12-13T19:35:01.036Z,54648.41
2022-12-13T19:37:30.229Z,54610.63
2022-12-13T19:39:59.447Z,54646.41
2022-12-13T19:42:28.604Z,54660.31
2022-12-13T19:44:57.517Z,54630.50
2022-12-13T19:47:27.763Z,54632.50
2022-12-13T19:49:58.373Z,54642.44
2022-12-13T19:52:27.893Z,54652.38
2022-12-13T19:54:56.738Z,54646.41
2022-12-13T19:57:26.476Z,54610.63
2022-12-13T19:59:55.894Z,54644.41
2022-12-13T20:02:24.954Z,54588.75
2022-12-13T20:04:54.340Z,54620.56
2022-12-13T20:07:26.926Z,54652.38
2022-12-13T20:09:55.900Z,54612.59
2022-12-13T20:12:25.774Z,54612.59
2022-12-13T20:14:55.075Z,54594.69
2022-12-13T20:17:23.856Z,54624.53
2022-12-13T20:19:52.985Z,54638.44
2022-12-13T20:22:23.908Z,54584.75
2022-12-13T20:24:52.957Z,54564.88
2022-12-13T20:27:23.558Z,54626.53
2022-12-13T20:29:55.670Z,54600.66
2022-12-13T20:32:24.861Z,54602.66
2022-12-13T20:34:55.092Z,54592.72
2022-12-13T20:37:28.592Z,54588.75
2022-12-13T20:39:58.950Z,54592.72
2022-12-13T20:42:28.282Z,54582.78
2022-12-13T20:44:58.272Z,54596.69
2022-12-13T20:47:27.056Z,54600.66
2022-12-13T20:49:55.777Z,54576.81
2022-12-13T20:52:26.830Z,54558.91
2022-12-13T20:54:55.857Z,54556.91
2022-12-13T20:57:25.589Z,54574.81
2022-12-13T20:59:54.552Z,54554.94
2022-12-13T21:02:23.439Z,54533.06
2022-12-13T21:04:52.461Z,54552.94
2022-12-13T21:07:41.510Z,54552.94
2022-12-13T21:10:12.655Z,54578.78
2022-12-13T21:12:41.783Z,54566.84
2022-12-13T21:15:11.293Z,54556.91
2022-12-13T21:17:40.137Z,54544.97
2022-12-13T21:20:10.115Z,54556.91
2022-12-13T21:22:39.149Z,54552.94
2022-12-13T21:25:09.306Z,54529.06
2022-12-13T21:27:40.187Z,54525.09
2022-12-13T21:30:10.715Z,54541.00
2022-12-13T21:32:39.428Z,54511.19
2022-12-13T21:35:09.759Z,54554.94
2022-12-13T21:37:41.195Z,54544.97
2022-12-13T21:40:11.729Z,54531.06
2022-12-13T21:42:42.188Z,54497.25
2022-12-13T21:45:11.882Z,54541.00
2022-12-13T21:47:41.236Z,54525.09
2022-12-13T21:50:10.950Z,54533.06
2022-12-13T21:52:40.636Z,54503.22
2022-12-13T21:55:38.350Z,54497.25
2022-12-13T21:58:21.813Z,54517.16
2022-12-13T22:00:50.851Z,54521.13
2022-12-13T22:03:20.648Z,54537.03
2022-12-13T22:05:49.516Z,54507.19
2022-12-13T22:08:18.658Z,54493.28
2022-12-13T22:11:01.011Z,54513.16
2022-12-13T22:13:31.629Z,54525.09
2022-12-13T22:16:01.036Z,54497.25
2022-12-13T22:18:30.726Z,54509.19
2022-12-13T22:20:59.823Z,54529.06
2022-12-13T22:23:28.788Z,54519.13
2022-12-13T22:25:58.124Z,54501.22
2022-12-13T22:28:31.636Z,54501.22
2022-12-13T22:31:00.135Z,54499.25
2022-12-13T22:33:28.963Z,54535.03
2022-12-13T22:36:02.473Z,54544.97
2022-12-13T22:38:31.145Z,54525.09
2022-12-13T22:41:01.446Z,54517.16
2022-12-13T22:43:35.440Z,54529.06
2022-12-13T22:46:08.543Z,54491.28
2022-12-13T22:48:37.373Z,54477.38
2022-12-13T22:51:07.534Z,54491.28
2022-12-13T22:53:38.170Z,54505.22
2022-12-13T22:56:08.521Z,54513.16
2022-12-13T22:58:39.475Z,54521.13
2022-12-13T23:01:10.431Z,54541.00
2022-12-13T23:03:40.128Z,54525.09
2022-12-13T23:06:13.921Z,54517.16
2022-12-13T23:08:44.990Z,54507.19
2022-12-13T23:11:33.059Z,54509.19
2022-12-13T23:14:06.130Z,54515.16
2022-12-13T23:16:36.032Z,54541.00
2022-12-13T23:19:39.600Z,54529.06
2022-12-13T23:21:58.234Z,54519.13
2022-12-13T23:24:27.559Z,54499.25
2022-12-13T23:26:57.177Z,54497.25
2022-12-13T23:29:28.367Z,54515.16
2022-12-13T23:31:57.122Z,54487.31
2022-12-13T23:34:25.938Z,54511.19
2022-12-13T23:36:54.389Z,54503.22
2022-12-13T23:39:23.211Z,54485.31
2022-12-13T23:41:51.627Z,54481.34
2022-12-13T23:44:21.715Z,54541.00
2022-12-13T23:46:52.265Z,54461.47
2022-12-13T23:49:21.404Z,54527.09
2022-12-13T23:51:50.121Z,54552.94
2022-12-13T23:54:20.306Z,54515.16
2022-12-13T23:56:49.329Z,54501.22
2022-12-13T23:59:19.254Z,54497.25
